createdAt,value
2023-04-04T00:02:11.473Z,-2.50
2023-04-04T00:04:38.373Z,-2.30
2023-04-04T00:07:05.470Z,-2.30
2023-04-04T00:09:32.413Z,-2.10
2023-04-04T00:11:59.258Z,-1.90
2023-04-04T00:14:26.375Z,-1.70
2023-04-04T00:16:53.047Z,-1.50
2023-04-04T00:19:19.754Z,-1.30
2023-04-04T00:21:46.417Z,-1.20
2023-04-04T00:24:13.053Z,-1.50
2023-04-04T00:26:39.742Z,-0.90
2023-04-04T00:29:06.820Z,-0.70
2023-04-04T00:31:33.845Z,-0.60
2023-04-04T00:34:00.820Z,-0.60
2023-04-04T00:36:27.799Z,-0.50
2023-04-04T00:38:54.547Z,-0.30
2023-04-04T00:41:21.395Z,-0.20
2023-04-04T00:43:48.825Z,-0.20
2023-04-04T00:46:17.489Z,-0.10
2023-04-04T00:48:44.538Z,-0.10
2023-04-04T00:51:11.533Z,-0.10
2023-04-04T00:53:38.440Z,0.00
2023-04-04T00:56:05.580Z,0.00
2023-04-04T00:58:32.441Z,0.00
2023-04-04T01:01:00.570Z,0.00
2023-04-04T01:03:27.901Z,0.10
2023-04-04T01:05:55.881Z,0.10
2023-04-04T01:08:26.573Z,0.10
2023-04-04T01:10:53.419Z,0.20
2023-04-04T01:13:20.729Z,0.20
2023-04-04T01:15:48.582Z,0.20
2023-04-04T01:18:19.398Z,0.20
2023-04-04T01:20:57.576Z,0.20
2023-04-04T01:23:29.060Z,0.30
2023-04-04T01:26:03.954Z,0.30
2023-04-04T01:28:31.038Z,0.30
2023-04-04T01:31:01.467Z,0.40
2023-04-04T01:33:31.606Z,0.40
2023-04-04T01:36:38.135Z,0.50
2023-04-04T01:39:09.929Z,0.60
2023-04-04T01:41:37.158Z,0.70
2023-04-04T01:44:04.136Z,0.70
2023-04-04T01:46:31.447Z,0.80
2023-04-04T01:48:58.269Z,0.80
2023-04-04T01:51:25.295Z,0.80
2023-04-04T01:53:51.971Z,0.80
2023-04-04T01:56:19.163Z,0.70
2023-04-04T01:58:46.309Z,0.70
2023-04-04T02:01:12.969Z,0.60
2023-04-04T02:03:39.765Z,0.50
2023-04-04T02:06:07.866Z,0.30
2023-04-04T02:08:34.599Z,0.10
2023-04-04T02:11:01.436Z,-0.10
2023-04-04T02:13:28.858Z,-0.20
2023-04-04T02:15:55.529Z,-0.40
2023-04-04T02:18:22.760Z,-0.80
2023-04-04T02:20:56.493Z,-0.70
2023-04-04T02:23:23.199Z,-0.70
2023-04-04T02:25:51.324Z,-0.90
2023-04-04T02:28:18.009Z,-0.90
2023-04-04T02:30:44.714Z,-1.00
2023-04-04T02:33:12.035Z,-1.10
2023-04-04T02:35:38.711Z,-1.20
2023-04-04T02:38:05.384Z,-1.20
2023-04-04T02:40:32.045Z,-1.20
2023-04-04T02:42:58.693Z,-1.30
2023-04-04T02:45:25.463Z,-1.40
2023-04-04T02:47:52.832Z,-1.60
2023-04-04T02:50:19.604Z,-1.70
2023-04-04T02:52:46.256Z,-1.80
2023-04-04T02:55:12.953Z,-1.90
2023-04-04T02:57:40.380Z,-2.00
2023-04-04T03:00:07.831Z,-2.10
2023-04-04T03:02:34.782Z,-2.10
2023-04-04T03:05:01.624Z,-2.20
2023-04-04T03:07:28.265Z,-2.20
2023-04-04T03:09:54.982Z,-2.30
2023-04-04T03:12:21.905Z,-2.30
2023-04-04T03:14:48.727Z,-2.40
2023-04-04T03:17:15.563Z,-2.50
2023-04-04T03:19:42.335Z,-2.50
2023-04-04T03:22:08.966Z,-2.60
2023-04-04T03:24:37.537Z,-2.60
2023-04-04T03:27:04.746Z,-2.60
2023-04-04T03:29:32.288Z,-2.70
2023-04-04T03:31:59.003Z,-2.70
2023-04-04T03:34:27.208Z,-2.80
2023-04-04T03:36:53.947Z,-2.80
2023-04-04T03:39:21.036Z,-2.80
2023-04-04T03:41:48.128Z,-2.90
2023-04-04T03:44:14.796Z,-2.90
2023-04-04T03:46:41.782Z,-4.40
2023-04-04T03:49:08.423Z,-3.00
2023-04-04T03:51:35.077Z,-3.00
2023-04-04T03:54:01.876Z,-3.00
2023-04-04T03:56:28.527Z,-3.10
2023-04-04T03:58:56.501Z,-3.10
2023-04-04T04:01:23.272Z,-3.10
2023-04-04T04:03:50.040Z,-3.20
2023-04-04T04:06:17.397Z,-3.20
2023-04-04T04:08:44.140Z,-3.20
2023-04-04T04:11:10.831Z,-3.20
2023-04-04T04:13:39.024Z,-3.20
2023-04-04T04:16:06.490Z,-3.20
2023-04-04T04:18:33.623Z,-3.20
2023-04-04T04:21:02.690Z,-3.20
2023-04-04T04:23:29.853Z,-3.30
2023-04-04T04:25:56.525Z,-3.30
2023-04-04T04:28:34.050Z,-3.30
2023-04-04T04:31:06.510Z,-3.30
2023-04-04T04:33:33.407Z,-3.40
2023-04-04T04:36:03.041Z,-3.30
2023-04-04T04:38:30.318Z,-3.30
2023-04-04T04:40:57.443Z,-3.40
2023-04-04T04:43:24.631Z,-3.40
2023-04-04T04:45:51.352Z,-3.40
2023-04-04T04:48:18.305Z,-3.30
2023-04-04T04:50:46.071Z,-3.40
2023-04-04T04:53:13.583Z,-3.40
2023-04-04T04:55:40.394Z,-3.40
2023-04-04T04:58:07.096Z,-3.40
2023-04-04T05:00:33.747Z,-3.40
2023-04-04T05:03:00.883Z,-3.40
2023-04-04T05:05:28.185Z,-3.40
2023-04-04T05:07:57.553Z,-3.30
2023-04-04T05:10:24.270Z,-3.30
2023-04-04T05:12:51.122Z,-3.30
2023-04-04T05:15:17.761Z,-3.20
2023-04-04T05:17:44.647Z,-3.00
2023-04-04T05:20:11.582Z,-2.80
2023-04-04T05:22:44.084Z,-2.70
2023-04-04T05:25:12.300Z,-2.50
2023-04-04T05:27:39.844Z,-2.30
2023-04-04T05:30:09.200Z,-1.80
2023-04-04T05:32:36.641Z,-1.10
2023-04-04T05:35:03.548Z,-0.10
2023-04-04T05:37:30.567Z,0.80
2023-04-04T05:39:57.430Z,1.70
2023-04-04T05:42:24.116Z,2.30
2023-04-04T05:44:51.854Z,2.60
2023-04-04T05:47:18.600Z,2.40
2023-04-04T05:49:45.286Z,2.00
2023-04-04T05:52:12.435Z,1.70
2023-04-04T05:54:39.125Z,1.30
2023-04-04T05:57:05.867Z,1.00
2023-04-04T05:59:32.565Z,0.70
2023-04-04T06:01:59.224Z,0.40
2023-04-04T06:04:26.133Z,0.30
2023-04-04T06:06:52.862Z,0.20
2023-04-04T06:09:19.497Z,0.00
2023-04-04T06:11:46.180Z,0.00
2023-04-04T06:14:14.713Z,-0.10
2023-04-04T06:16:42.095Z,-0.10
2023-04-04T06:19:08.774Z,-2.50
2023-04-04T06:21:35.433Z,0.00
2023-04-04T06:24:02.093Z,0.00
2023-04-04T06:26:28.769Z,0.10
2023-04-04T06:28:55.883Z,0.20
2023-04-04T06:31:22.718Z,0.30
2023-04-04T06:33:49.555Z,0.40
2023-04-04T06:36:16.261Z,0.60
2023-04-04T06:38:42.950Z,0.70
2023-04-04T06:41:09.667Z,0.80
2023-04-04T06:43:36.307Z,1.00
2023-04-04T06:46:03.197Z,1.10
2023-04-04T06:48:29.891Z,1.20
2023-04-04T06:50:57.047Z,1.40
2023-04-04T06:53:24.726Z,1.50
2023-04-04T06:55:52.560Z,1.60
2023-04-04T06:58:19.246Z,1.70
2023-04-04T07:00:46.203Z,1.90
2023-04-04T07:03:12.948Z,2.00
2023-04-04T07:05:39.944Z,2.10
2023-04-04T07:08:06.718Z,2.20
2023-04-04T07:10:33.403Z,2.30
2023-04-04T07:13:00.474Z,2.30
2023-04-04T07:15:28.035Z,2.40
2023-04-04T07:17:55.130Z,2.50
2023-04-04T07:20:22.039Z,2.70
2023-04-04T07:22:48.788Z,2.90
2023-04-04T07:25:15.674Z,3.10
2023-04-04T07:27:42.271Z,3.20
2023-04-04T07:30:09.487Z,3.30
2023-04-04T07:32:38.220Z,3.40
2023-04-04T07:35:06.787Z,3.50
2023-04-04T07:37:36.879Z,3.60
2023-04-04T07:40:04.515Z,3.60
2023-04-04T07:42:31.125Z,3.70
2023-04-04T07:44:57.872Z,3.70
2023-04-04T07:47:24.574Z,3.80
2023-04-04T07:49:51.384Z,4.00
2023-04-04T07:52:18.066Z,4.10
2023-04-04T07:54:44.878Z,4.40
2023-04-04T07:57:11.632Z,4.60
2023-04-04T07:59:38.400Z,4.70
2023-04-04T08:02:05.059Z,4.80
2023-04-04T08:04:31.923Z,4.80
2023-04-04T08:06:58.745Z,4.80
2023-04-04T08:09:25.626Z,4.90
2023-04-04T08:11:52.569Z,5.00
2023-04-04T08:14:19.363Z,5.20
2023-04-04T08:16:46.096Z,5.10
2023-04-04T08:19:12.974Z,5.10
2023-04-04T08:21:39.738Z,5.20
2023-04-04T08:24:06.633Z,5.50
2023-04-04T08:26:33.339Z,5.70
2023-04-04T08:28:59.966Z,6.00
2023-04-04T08:31:49.960Z,6.20
2023-04-04T08:34:16.641Z,6.40
2023-04-04T08:36:43.324Z,6.40
2023-04-04T08:39:10.038Z,6.40
2023-04-04T08:41:37.138Z,6.40
2023-04-04T08:44:05.967Z,6.20
2023-04-04T08:46:33.018Z,6.00
2023-04-04T08:49:01.886Z,5.80
2023-04-04T08:51:31.692Z,5.60
2023-04-04T08:53:59.242Z,5.70
2023-04-04T08:56:26.523Z,5.90
2023-04-04T08:58:53.321Z,6.00
2023-04-04T09:01:20.164Z,6.30
2023-04-04T09:07:32.029Z,6.10
2023-04-04T09:09:59.201Z,6.50
2023-04-04T09:12:26.241Z,6.90
2023-04-04T09:14:54.362Z,7.10
2023-04-04T09:17:21.090Z,7.30
2023-04-04T09:19:47.928Z,7.10
2023-04-04T09:22:17.091Z,6.70
2023-04-04T09:24:44.085Z,8.90
2023-04-04T09:27:12.390Z,7.10
2023-04-04T09:29:40.402Z,7.80
2023-04-04T09:32:10.154Z,8.20
2023-04-04T09:34:37.838Z,8.50
2023-04-04T09:37:05.725Z,8.30
2023-04-04T09:39:34.327Z,8.60
2023-04-04T09:42:02.021Z,8.80
2023-04-04T09:44:33.213Z,9.00
2023-04-04T09:47:30.361Z,8.50
2023-04-04T09:49:59.146Z,8.00
2023-04-04T09:52:26.347Z,7.80
2023-04-04T09:54:57.158Z,7.60
2023-04-04T09:57:28.131Z,7.80
2023-04-04T10:00:01.393Z,8.40
2023-04-04T10:02:31.005Z,9.70
2023-04-04T10:05:06.022Z,10.60
2023-04-04T10:07:34.016Z,10.90
2023-04-04T10:10:04.786Z,11.10
2023-04-04T10:12:31.694Z,10.50
2023-04-04T10:14:58.990Z,9.50
2023-04-04T10:17:36.249Z,8.80
2023-04-04T10:20:06.590Z,9.20
2023-04-04T10:22:35.593Z,8.80
2023-04-04T10:25:03.575Z,8.50
2023-04-04T10:27:30.422Z,9.20
2023-04-04T10:29:57.217Z,9.90
2023-04-04T10:32:32.159Z,11.40
2023-04-04T10:35:10.727Z,11.60
2023-04-04T10:45:19.859Z,17.20
2023-04-04T10:47:48.329Z,18.80
2023-04-04T10:50:15.814Z,19.40
2023-04-04T10:52:44.485Z,16.90
2023-04-04T10:55:12.869Z,16.40
2023-04-04T10:57:45.494Z,17.00
2023-04-04T11:00:17.707Z,18.20
2023-04-04T11:02:46.626Z,19.70
2023-04-04T11:05:18.757Z,19.90
2023-04-04T11:07:57.272Z,19.50
2023-04-04T11:10:35.307Z,19.10
2023-04-04T11:13:13.274Z,17.80
2023-04-04T11:16:00.492Z,16.80
2023-04-04T11:18:43.168Z,16.40
2023-04-04T11:21:14.045Z,17.30
2023-04-04T11:23:48.448Z,14.60
2023-04-04T11:26:30.928Z,14.10
2023-04-04T11:28:59.016Z,13.20
2023-04-04T11:31:28.858Z,12.70
2023-04-04T11:34:14.120Z,13.10
2023-04-04T11:36:42.471Z,14.80
2023-04-04T11:39:14.432Z,16.90
2023-04-04T11:41:58.637Z,17.00
2023-04-04T11:44:30.666Z,15.90
2023-04-04T11:47:09.780Z,14.60
2023-04-04T11:49:39.592Z,13.40
2023-04-04T11:52:08.943Z,12.70
2023-04-04T11:54:37.692Z,12.40
2023-04-04T11:57:07.329Z,12.00
2023-04-04T11:59:34.874Z,11.60
2023-04-04T12:02:03.069Z,11.80
2023-04-04T12:04:29.874Z,13.80
2023-04-04T12:06:56.801Z,16.50
2023-04-04T12:09:25.850Z,18.50
2023-04-04T12:11:52.836Z,20.00
2023-04-04T12:14:21.862Z,21.60
2023-04-04T12:16:53.792Z,20.40
2023-04-04T12:19:23.005Z,18.20
2023-04-04T12:21:50.993Z,16.70
2023-04-04T12:24:17.850Z,17.70
2023-04-04T12:26:50.022Z,20.00
2023-04-04T12:29:18.141Z,21.80
2023-04-04T12:31:47.059Z,21.30
2023-04-04T12:34:20.317Z,20.80
2023-04-04T12:36:48.977Z,19.30
2023-04-04T12:39:16.753Z,17.30
2023-04-04T12:42:01.582Z,15.50
2023-04-04T12:44:34.920Z,14.20
2023-04-04T12:47:04.558Z,13.30
2023-04-04T12:49:48.757Z,12.30
2023-04-04T12:52:21.788Z,11.60
2023-04-04T12:54:59.166Z,11.90
2023-04-04T12:57:34.296Z,14.80
2023-04-04T13:00:04.422Z,17.90
2023-04-04T13:02:31.160Z,17.60
2023-04-04T13:04:58.792Z,16.90
2023-04-04T13:07:27.415Z,17.80
2023-04-04T13:09:57.077Z,19.80
2023-04-04T13:12:23.761Z,21.70
2023-04-04T13:15:07.029Z,23.60
2023-04-04T13:17:50.499Z,23.70
2023-04-04T13:20:19.606Z,21.20
2023-04-04T13:22:46.607Z,20.00
2023-04-04T13:25:13.496Z,19.00
2023-04-04T13:27:41.368Z,19.30
2023-04-04T13:30:10.067Z,21.40
2023-04-04T13:32:38.302Z,23.90
2023-04-04T13:35:05.754Z,25.30
2023-04-04T13:37:32.359Z,25.00
2023-04-04T13:39:59.081Z,22.50
2023-04-04T13:42:30.211Z,20.30
2023-04-04T13:44:57.429Z,18.50
2023-04-04T13:47:27.304Z,16.60
2023-04-04T13:49:54.969Z,15.30
2023-04-04T13:52:22.213Z,16.60
2023-04-04T13:54:49.439Z,18.10
2023-04-04T13:57:16.614Z,20.40
2023-04-04T13:59:43.450Z,20.80
2023-04-04T14:02:10.596Z,22.40
2023-04-04T14:04:37.459Z,24.10
2023-04-04T14:07:04.282Z,25.80
2023-04-04T14:09:31.130Z,25.70
2023-04-04T14:11:57.853Z,22.40
2023-04-04T14:14:24.502Z,20.00
2023-04-04T14:16:51.523Z,17.00
2023-04-04T14:19:18.202Z,15.20
2023-04-04T14:21:44.874Z,14.00
2023-04-04T14:24:11.654Z,13.20
2023-04-04T14:26:38.321Z,13.00
2023-04-04T14:29:05.051Z,14.10
2023-04-04T14:31:34.659Z,16.30
2023-04-04T14:34:02.768Z,18.70
2023-04-04T14:36:29.563Z,21.40
2023-04-04T14:38:56.685Z,21.80
2023-04-04T14:41:23.467Z,20.90
2023-04-04T14:43:50.445Z,18.90
2023-04-04T14:46:19.000Z,17.10
2023-04-04T14:48:47.149Z,15.50
2023-04-04T14:51:14.078Z,14.20
2023-04-04T14:53:40.965Z,13.30
2023-04-04T14:56:08.353Z,12.70
2023-04-04T14:58:35.692Z,12.00
2023-04-04T15:01:03.545Z,11.40
2023-04-04T15:03:30.579Z,11.10
2023-04-04T15:05:57.690Z,10.80
2023-04-04T15:08:24.321Z,10.30
2023-04-04T15:10:51.219Z,10.00
2023-04-04T15:13:20.300Z,10.20
2023-04-04T15:15:46.980Z,11.40
2023-04-04T15:18:13.728Z,14.30
2023-04-04T15:20:40.606Z,17.40
2023-04-04T15:23:07.462Z,19.30
2023-04-04T15:25:34.211Z,20.70
2023-04-04T15:28:00.727Z,22.30
2023-04-04T15:30:28.249Z,22.40
2023-04-04T15:32:56.628Z,20.70
2023-04-04T15:35:23.593Z,18.60
2023-04-04T15:37:51.299Z,18.40
2023-04-04T15:40:19.045Z,17.30
2023-04-04T15:42:46.651Z,15.70
2023-04-04T15:45:14.403Z,14.00
2023-04-04T15:47:42.358Z,12.50
2023-04-04T15:50:11.034Z,12.40
2023-04-04T15:52:38.337Z,13.50
2023-04-04T15:55:09.953Z,15.10
2023-04-04T15:57:36.635Z,16.50
2023-04-04T16:00:04.178Z,16.40
2023-04-04T16:02:30.842Z,15.10
2023-04-04T16:04:57.586Z,13.70
2023-04-04T16:07:24.296Z,12.50
2023-04-04T16:09:50.934Z,11.40
2023-04-04T16:12:17.631Z,10.80
2023-04-04T16:14:44.383Z,10.40
2023-04-04T16:17:11.082Z,10.10
2023-04-04T16:19:37.758Z,9.90
2023-04-04T16:22:04.210Z,9.70
2023-04-04T16:24:31.123Z,9.70
2023-04-04T16:26:57.872Z,9.50
2023-04-04T16:29:24.595Z,9.50
2023-04-04T16:31:51.329Z,9.40
2023-04-04T16:34:18.124Z,9.40
2023-04-04T16:36:44.878Z,9.30
2023-04-04T16:39:11.584Z,9.30
2023-04-04T16:41:40.926Z,9.10
2023-04-04T16:44:07.643Z,8.90
2023-04-04T16:46:34.642Z,8.50
2023-04-04T16:49:01.517Z,8.20
2023-04-04T16:51:28.569Z,8.00
2023-04-04T16:53:56.220Z,7.70
2023-04-04T16:56:23.896Z,7.50
2023-04-04T16:58:50.682Z,7.30
2023-04-04T17:01:22.405Z,7.10
2023-04-04T17:03:49.372Z,7.00
2023-04-04T17:06:16.196Z,6.90
2023-04-04T17:08:45.061Z,6.80
2023-04-04T17:11:13.054Z,6.70
2023-04-04T17:13:39.758Z,6.60
2023-04-04T17:16:07.311Z,6.40
2023-04-04T17:18:34.311Z,6.30
2023-04-04T17:21:01.547Z,6.20
2023-04-04T17:23:28.357Z,6.10
2023-04-04T17:25:55.448Z,6.10
2023-04-04T17:28:22.232Z,6.00
2023-04-04T17:30:48.908Z,5.80
2023-04-04T17:33:15.571Z,5.70
2023-04-04T17:35:44.149Z,5.60
2023-04-04T17:38:10.898Z,5.40
2023-04-04T17:40:40.347Z,5.30
2023-04-04T17:43:07.340Z,4.60
2023-04-04T17:45:34.668Z,5.00
2023-04-04T17:48:01.357Z,4.90
2023-04-04T17:50:28.130Z,4.70
2023-04-04T17:52:54.766Z,4.70
2023-04-04T17:55:22.863Z,4.60
2023-04-04T17:57:49.580Z,4.40
2023-04-04T18:00:16.833Z,4.40
2023-04-04T18:02:43.824Z,4.30
2023-04-04T18:05:10.667Z,4.20
2023-04-04T18:07:37.360Z,4.10
2023-04-04T18:10:04.318Z,4.00
2023-04-04T18:12:34.569Z,3.90
2023-04-04T18:15:02.692Z,3.80
2023-04-04T18:17:29.747Z,3.70
2023-04-04T18:19:57.536Z,3.60
2023-04-04T18:22:24.358Z,3.50
2023-04-04T18:24:51.044Z,3.50
2023-04-04T18:27:17.960Z,3.40
2023-04-04T18:29:44.643Z,3.40
2023-04-04T18:32:11.539Z,3.30
2023-04-04T18:34:38.525Z,3.30
2023-04-04T18:37:06.220Z,3.30
2023-04-04T18:39:32.904Z,3.20
2023-04-04T18:41:59.705Z,3.20
2023-04-04T18:44:26.466Z,3.10
2023-04-04T18:46:53.170Z,3.10
2023-04-04T18:49:19.863Z,3.00
2023-04-04T18:51:47.606Z,3.00
2023-04-04T18:54:14.289Z,2.90
2023-04-04T18:56:41.103Z,2.80
2023-04-04T18:59:07.968Z,4.20
2023-04-04T19:01:35.996Z,2.70
2023-04-04T19:04:03.823Z,2.50
2023-04-04T19:06:32.012Z,2.50
2023-04-04T19:09:03.988Z,2.40
2023-04-04T19:11:32.260Z,2.30
2023-04-04T19:13:59.883Z,2.20
2023-04-04T19:16:26.693Z,2.20
2023-04-04T19:18:53.376Z,2.10
2023-04-04T19:21:20.145Z,2.00
2023-04-04T19:23:47.260Z,1.90
2023-04-04T19:26:15.733Z,1.90
2023-04-04T19:28:46.190Z,1.80
2023-04-04T19:31:21.590Z,1.80
2023-04-04T19:33:51.149Z,1.70
2023-04-04T19:36:18.051Z,1.70
2023-04-04T19:38:45.282Z,1.60
2023-04-04T19:41:16.625Z,1.50
2023-04-04T19:43:45.517Z,1.50
2023-04-04T19:46:14.840Z,1.50
2023-04-04T19:48:49.397Z,1.40
2023-04-04T19:51:17.212Z,1.30
2023-04-04T19:53:46.281Z,1.30
2023-04-04T19:56:14.604Z,1.20
2023-04-04T19:58:41.670Z,1.10
2023-04-04T20:01:10.432Z,1.10
2023-04-04T20:03:39.324Z,1.00
2023-04-04T20:06:16.741Z,0.90
2023-04-04T20:08:48.723Z,0.90
2023-04-04T20:11:16.995Z,0.90
2023-04-04T20:13:44.751Z,0.80
2023-04-04T20:16:14.341Z,0.80
2023-04-04T20:18:43.816Z,0.80
2023-04-04T20:21:12.255Z,0.70
2023-04-04T20:23:42.922Z,0.70
2023-04-04T20:26:10.632Z,0.60
2023-04-04T20:28:37.299Z,0.60
2023-04-04T20:31:09.427Z,0.50
2023-04-04T20:33:40.073Z,0.50
2023-04-04T20:36:11.683Z,0.50
2023-04-04T20:38:41.041Z,0.50
2023-04-04T20:41:15.988Z,0.40
2023-04-04T20:43:52.612Z,0.40
2023-04-04T20:46:20.872Z,0.40
2023-04-04T20:48:48.497Z,0.40
2023-04-04T20:51:23.918Z,0.30
2023-04-04T20:53:52.126Z,0.30
2023-04-04T20:56:39.753Z,0.20
2023-04-04T20:59:07.697Z,0.20
2023-04-04T21:01:34.457Z,0.10
2023-04-04T21:04:01.595Z,0.40
2023-04-04T21:06:29.843Z,0.00
2023-04-04T21:08:56.548Z,-0.10
2023-04-04T21:11:28.789Z,-0.10
2023-04-04T21:13:56.378Z,-0.20
2023-04-04T21:16:25.462Z,-0.20
2023-04-04T21:18:58.908Z,-0.30
2023-04-04T21:21:26.248Z,-0.40
2023-04-04T21:23:54.210Z,-0.50
2023-04-04T21:26:34.866Z,-0.50
2023-04-04T21:29:04.394Z,-0.60
2023-04-04T21:31:36.256Z,-0.60
2023-04-04T21:34:15.993Z,-0.70
2023-04-04T21:36:43.735Z,-0.80
2023-04-04T21:39:14.392Z,-0.80
2023-04-04T21:41:43.180Z,-0.90
2023-04-04T21:44:10.693Z,-0.90
2023-04-04T21:46:39.319Z,-0.90
2023-04-04T21:49:07.540Z,-1.00
2023-04-04T21:51:34.765Z,-1.00
2023-04-04T21:54:01.905Z,-1.10
2023-04-04T21:56:31.460Z,-1.00
2023-04-04T21:59:00.813Z,-1.10
2023-04-04T22:01:27.891Z,-1.20
2023-04-04T22:03:54.593Z,-1.20
2023-04-04T22:06:24.077Z,-1.10
2023-04-04T22:08:51.142Z,-1.20
2023-04-04T22:11:19.559Z,-1.20
2023-04-04T22:13:48.327Z,-1.20
2023-04-04T22:16:16.860Z,-1.30
2023-04-04T22:18:47.581Z,-1.30
2023-04-04T22:21:15.266Z,-1.30
2023-04-04T22:23:42.354Z,-1.40
2023-04-04T22:26:13.681Z,-1.40
2023-04-04T22:28:42.200Z,-1.40
2023-04-04T22:31:09.381Z,-1.50
2023-04-04T22:33:36.178Z,-1.50
2023-04-04T22:36:03.773Z,-1.60
2023-04-04T22:38:30.846Z,-1.60
2023-04-04T22:40:58.493Z,-1.60
2023-04-04T22:43:25.904Z,-1.60
2023-04-04T22:45:53.400Z,-1.50
2023-04-04T22:48:22.947Z,-1.70
2023-04-04T22:50:55.391Z,-1.70
2023-04-04T22:53:26.439Z,-1.70
2023-04-04T22:55:58.271Z,-1.70
2023-04-04T22:58:25.299Z,-1.70
2023-04-04T23:00:52.107Z,-2.30
2023-04-04T23:03:18.868Z,-1.70
2023-04-04T23:05:45.575Z,-1.80
2023-04-04T23:08:12.356Z,-1.80
2023-04-04T23:10:39.192Z,-1.80
2023-04-04T23:13:06.111Z,-1.90
2023-04-04T23:15:35.445Z,-1.90
2023-04-04T23:18:02.504Z,-1.90
2023-04-04T23:20:32.062Z,-1.90
2023-04-04T23:22:59.272Z,-2.00
2023-04-04T23:25:26.416Z,-2.00
2023-04-04T23:27:53.963Z,-2.00
2023-04-04T23:30:23.173Z,-2.00
2023-04-04T23:32:50.389Z,-2.00
2023-04-04T23:35:17.127Z,-2.10
2023-04-04T23:37:43.801Z,-2.10
2023-04-04T23:40:11.088Z,-2.10
2023-04-04T23:42:37.915Z,-2.10
2023-04-04T23:45:05.028Z,-2.20
2023-04-04T23:47:31.756Z,-2.20
2023-04-04T23:49:58.580Z,-2.30
2023-04-04T23:52:25.313Z,-2.20
2023-04-04T23:54:52.023Z,-2.30
2023-04-04T23:57:18.654Z,-2.40
2023-04-04T23:59:45.333Z,-2.40
